Archival Weather

Tokyo Intl

Tokyo Intl, Japan (RJTT)

Report from: Friday, June 24, 2022 3:00 PM JST
Current time: Tuesday, August 16, 2022 10:17 AM JST

Current weather
Weather history
Weather forecast

Temperature30.0°C (86.0°F)
Heat index34.2°C (93.6°F)
Dew point23.0°C (73.4°F)
Winds 26 kts (13.4 m/s, 29.9 mph) South-Southwest (200°)
Wind gusts 36 kts (18.5 m/s, 41.4 mph)
Visibility6.2 mi. (10 km)
Clouds Ceiling: Broken clouds 0 ft. (0 m)
Few clouds 3,000 ft. (914 m)
Scattered clouds 19,000 ft. (5,791 m)
Altimeter29.59 in.Hg (1002 mB)
Relative humidity66 %
Density altitude2,475 ft. (754 m)
Flight conditions Low Instrument Meteorological Conditions
Raw dataRJTT 240600Z 20026KT 9999 FEW030 SCT190 BKN/// 30/23 Q1002 TEMPO 20026G36KT
An error has occurred. This application may no longer respond until reloaded. Reload 🗙